首页
METAR-TAF:

METAR-TAF

机场 :

倫敦希斯路機場, 英格兰

纬度: 51-29N, 经度: 000-27W, 海拔: 24米

当前天气观测

该预报发布于36分钟前的18:20 UTC
风速4节,风向西北
温度 2°C
湿度 80%
气压 1007 hPa
能见度10公里或以上

METAR: EGLL 231820Z AUTO 31004KT 9999 NCD 02/M01 Q1007 NOSIG

时间: 18:56 (18:56 UTC)

预报

该预报发布于1小时和58分钟前的16:58 UTC
预报有效从23日的 18点(UTC)到 24日的 24点(UTC)
风速6节,风向北转西北
能见度10公里或以上
散云层高于1200英尺
成为
从 23日的 18点(UTC)到 23日的 21点(UTC)
能見度: 6000
短暂存在
从 23日的 22点(UTC)到 24日的 08点(UTC)
能見度: 2500
轻雾
几率 30% :
短暂存在
从 23日的 23点(UTC)到 24日的 09点(UTC)
能見度: 1200
浅雾
短暂存在
从 24日的 08点(UTC)到 24日的 13点(UTC)
多云层高于800英尺
小阵雨
几率 40% :
短暂存在
从 24日的 13点(UTC)到 24日的 18点(UTC)
多云层高于1200英尺
几率 30% :
短暂存在
从 24日的 22点(UTC)到 24日的 24点(UTC)
能見度: 4000
轻雾

TAF: EGLL 231658Z 2318/2424 33006KT 9999 SCT012 BECMG 2318/2321 6000 TEMPO 2322/2408 2500 BR PROB30 TEMPO 2323/2409 1200 MIFG TEMPO 2408/2413 -SHRA BKN008 PROB40 TEMPO 2413/2418 BKN012 PROB30 TEMPO 2422/2424 4000 BR

超过4000个机场的气象观测和天气预报(METAR&TAF报告)。

可查询的气象台以黄色和红色小点在地图上表示。

将鼠标移到小点上方,可查看气象台名称。

然后点击查看天气观测和预报。

如需切换地图:点击带黑十字的绿色按钮放大地图;点击带横线的绿色按钮缩小地图;或者点击绿色箭头查看邻近地区的地图。


METAR-TAF: